Terminal Aerodrome Forecast
Issued by NWS Denver/Boulder, CO

Home | Current Version | Previous Version | Text Only | Print | Product List | Glossary On
Versions: 1 2 3 4 5 6 7 8 9 10 11 12 13 14 15 16 17 18 19 20 21 22 23 24 25 26 27 28 29 30 31 32 33 34 35 36 37 38 39 40 41 42 43 44 45 46 47 48 49 50
941
FTUS45 KBOU 250857 AAC
TAFDEN
TAF AMD
KDEN 250857Z 2509/2612 01020G30KT P6SM VCSH SCT007 BKN012 OVC025
     FM251100 02014KT P6SM BKN007 OVC012
     FM251400 34010KT P6SM SCT015 BKN045
     FM251800 03008KT P6SM SCT050
     FM260000 08007KT P6SM FEW050 SCT220
     FM260400 16012KT P6SM SCT220
     FM260800 20011KT P6SM FEW250=

USA.gov is the U.S. government's official web portal to all federal, state and local government web resources and services.